Time,TemperatureF,DewpointF,PressureIn,WindDirection,WindDirectionDegrees,WindSpeedMPH,WindSpeedGustMPH,Humidity,HourlyPrecipIn,Conditions,Clouds,dailyrainin,SoftwareType,DateUTC
2013-02-15 00:00:00,56.3,34.1,30.39,NE,56,0.0,1.0,43,0.00,CLR,,0.00,WeatherDisplay:10.37,2013-02-14 23:00:00,
2013-02-15 00:05:00,56.3,34.1,30.39,SW,225,0.0,1.0,43,0.00,CLR,,0.00,WeatherDisplay:10.37,2013-02-14 23:05:00,
2013-02-15 00:10:00,56.5,34.2,30.39,NNW,338,0.0,0.0,43,0.00,CLR,,0.00,WeatherDisplay:10.37,2013-02-14 23:10:00,
2013-02-15 00:15:00,56.5,34.2,30.39,North,356,0.0,0.0,43,0.00,CLR,,0.00,WeatherDisplay:10.37,2013-02-14 23:15:00,
2013-02-15 00:20:00,56.5,34.2,30.39,North,0,0.0,0.0,43,0.00,CLR,,0.00,WeatherDisplay:10.37,2013-02-14 23:20:00,
2013-02-15 00:25:00,44.6,34.7,30.06,East,90,0.0,0.0,68,0.00,CLR,,0.00,WeatherDisplay:10.37,2013-02-14 23:25:00,
2013-02-15 01:40:00,45.1,2.8,28.07,WSW,247,0.0,0.0,17,0.00,CLR,,0.00,WeatherDisplay:10.37,2013-02-15 00:40:00,
2013-02-15 01:45:00,51.1,32.1,30.34,SE,124,0.0,2.0,48,0.00,CLR,,0.00,WeatherDisplay:10.37,2013-02-15 00:45:00,
2013-02-15 01:50:00,45.1,2.8,28.07,North,0,0.0,0.0,17,0.00,CLR,,0.00,WeatherDisplay:10.37,2013-02-15 00:50:00,
2013-02-15 01:55:00,45.1,2.8,28.07,North,0,0.0,0.0,17,0.00,CLR,,0.00,WeatherDisplay:10.37,2013-02-15 00:55:00,
2013-02-15 02:00:00,50.9,31.9,30.34,WSW,244,0.0,0.0,48,0.00,CLR,,0.00,WeatherDisplay:10.37,2013-02-15 01:00:00,
2013-02-15 02:05:00,50.9,31.9,30.34,SW,220,0.0,0.0,48,0.00,CLR,,0.00,WeatherDisplay:10.37,2013-02-15 01:05:00,
2013-02-15 02:10:00,50.9,32.4,30.34,SSW,209,0.0,2.0,49,0.00,CLR,,0.00,WeatherDisplay:10.37,2013-02-15 01:10:00,
2013-02-15 02:15:00,51.1,32.1,30.34,WSW,243,2.0,4.0,48,0.00,CLR,,0.00,WeatherDisplay:10.37,2013-02-15 01:15:00,
2013-02-15 02:20:00,51.3,31.7,30.34,West,262,1.0,4.0,47,0.00,CLR,,0.00,WeatherDisplay:10.37,2013-02-15 01:20:00,
2013-02-15 02:25:00,51.4,31.9,30.34,West,262,1.0,4.0,47,0.00,CLR,,0.00,WeatherDisplay:10.37,2013-02-15 01:25:00,
2013-02-15 02:30:00,51.4,31.9,30.34,West,270,1.0,4.0,47,0.00,CLR,,0.00,WeatherDisplay:10.37,2013-02-15 01:30:00,
2013-02-15 02:35:00,51.4,31.9,30.34,West,268,1.0,3.0,47,0.00,CLR,,0.00,WeatherDisplay:10.37,2013-02-15 01:35:00,
2013-02-15 02:40:00,51.4,31.9,30.34,WSW,257,1.0,3.0,47,0.00,CLR,,0.00,WeatherDisplay:10.37,2013-02-15 01:40:00,
2013-02-15 02:45:00,51.3,32.2,30.34,WSW,244,1.0,3.0,48,0.00,CLR,,0.00,WeatherDisplay:10.37,2013-02-15 01:45:00,
2013-02-15 02:50:00,51.3,32.2,30.34,SW,229,1.0,3.0,48,0.00,CLR,,0.00,WeatherDisplay:10.37,2013-02-15 01:50:00,
2013-02-15 02:55:00,51.3,32.2,30.34,West,275,1.0,3.0,48,0.00,CLR,,0.00,WeatherDisplay:10.37,2013-02-15 01:55:00,
2013-02-15 03:00:00,51.3,32.2,30.34,WNW,295,0.0,2.0,48,0.00,CLR,,0.00,WeatherDisplay:10.37,2013-02-15 02:00:00,
2013-02-15 03:05:00,51.1,32.6,30.34,East,90,1.0,3.0,49,0.00,CLR,,0.00,WeatherDisplay:10.37,2013-02-15 02:05:00,
2013-02-15 03:10:00,50.9,32.4,30.34,East,90,0.0,3.0,49,0.00,CLR,,0.00,WeatherDisplay:10.37,2013-02-15 02:10:00,
2013-02-15 03:15:00,50.9,32.4,30.34,East,90,0.0,1.0,49,0.00,CLR,,0.00,WeatherDisplay:10.37,2013-02-15 02:15:00,
2013-02-15 03:20:00,50.7,32.2,30.34,East,90,0.0,0.0,49,0.00,CLR,,0.00,WeatherDisplay:10.37,2013-02-15 02:20:00,
2013-02-15 03:30:00,50.4,32.4,30.34,East,96,0.0,2.0,50,0.00,CLR,,0.00,WeatherDisplay:10.37,2013-02-15 02:30:00,
2013-02-15 07:29:00,44.6,34.7,30.06,South,180,0.0,0.0,68,0.00,CLR,,0.00,WeatherDisplay:10.37,2013-02-15 06:29:00,
2013-02-15 07:30:00,44.6,34.7,30.06,South,180,0.0,0.0,68,0.00,CLR,,0.00,WeatherDisplay:10.37,2013-02-15 06:30:00,
2013-02-15 07:35:00,44.8,34.9,30.06,West,270,1.2,0.0,68,0.00,CLR,,0.00,WeatherDisplay:10.37,2013-02-15 06:35:00,
2013-02-15 07:40:00,45.0,35.0,30.06,West,270,1.2,0.0,68,0.00,CLR,,0.00,WeatherDisplay:10.37,2013-02-15 06:40:00,
2013-02-15 07:45:00,45.1,35.2,30.07,South,180,0.0,0.0,68,0.00,CLR,,0.00,WeatherDisplay:10.37,2013-02-15 06:45:00,
2013-02-15 07:51:00,45.1,2.8,28.07,North,0,0.0,0.0,17,0.00,CLR,,0.00,WeatherDisplay:10.37,2013-02-15 06:51:00,
2013-02-15 07:56:00,45.5,35.5,30.07,South,180,0.0,0.0,68,0.00,CLR,,0.00,WeatherDisplay:10.37,2013-02-15 06:56:00,
2013-02-15 08:40:00,49.8,33.4,30.35,ENE,69,1.0,2.0,53,0.00,CLR,,0.00,WeatherDisplay:10.37,2013-02-15 07:40:00,
2013-02-15 08:45:00,49.8,33.4,30.35,West,274,0.0,2.0,53,0.00,CLR,,0.00,WeatherDisplay:10.37,2013-02-15 07:45:00,
2013-02-15 08:50:00,49.6,33.2,30.36,West,265,0.0,0.0,53,0.00,CLR,,0.00,WeatherDisplay:10.37,2013-02-15 07:50:00,
2013-02-15 08:55:00,49.5,33.5,30.36,WSW,246,1.0,2.0,54,0.00,CLR,,0.00,WeatherDisplay:10.37,2013-02-15 07:55:00,
2013-02-15 09:00:00,49.5,33.5,30.36,WSW,252,0.0,2.0,54,0.00,CLR,,0.00,WeatherDisplay:10.37,2013-02-15 08:00:00,
2013-02-15 09:05:00,49.5,33.5,30.37,WNW,293,0.0,1.0,54,0.00,CLR,,0.00,WeatherDisplay:10.37,2013-02-15 08:05:00,
2013-02-15 09:10:00,49.5,33.5,30.37,West,272,0.0,1.0,54,0.00,CLR,,0.00,WeatherDisplay:10.37,2013-02-15 08:10:00,
2013-02-15 09:15:00,49.5,33.5,30.37,WNW,293,1.0,2.0,54,0.00,CLR,,0.00,WeatherDisplay:10.37,2013-02-15 08:15:00,
2013-02-15 09:20:00,49.6,33.7,30.37,NW,326,1.0,2.0,54,0.00,CLR,,0.00,WeatherDisplay:10.37,2013-02-15 08:20:00,
2013-02-15 09:25:00,50.0,34.5,30.37,WNW,299,1.0,2.0,55,0.00,CLR,,0.00,WeatherDisplay:10.37,2013-02-15 08:25:00,
2013-02-15 09:30:00,50.2,34.2,30.37,WNW,282,0.0,2.0,54,0.00,CLR,,0.00,WeatherDisplay:10.37,2013-02-15 08:30:00,
2013-02-15 09:35:00,50.4,34.3,30.37,ESE,102,0.0,0.0,54,0.00,CLR,,0.00,WeatherDisplay:10.37,2013-02-15 08:35:00,
2013-02-15 09:40:00,50.5,34.5,30.37,ESE,109,0.0,0.0,54,0.00,CLR,,0.00,WeatherDisplay:10.37,2013-02-15 08:40:00,
2013-02-15 09:45:00,50.9,34.8,30.37,East,90,0.0,0.0,54,0.00,CLR,,0.00,WeatherDisplay:10.37,2013-02-15 08:45:00,
2013-02-15 09:50:00,51.3,35.2,30.37,ESE,105,0.0,0.0,54,0.00,CLR,,0.00,WeatherDisplay:10.37,2013-02-15 08:50:00,
2013-02-15 09:55:00,51.6,35.0,30.37,SSE,158,0.0,1.0,53,0.00,CLR,,0.00,WeatherDisplay:10.37,2013-02-15 08:55:00,
2013-02-15 10:00:00,51.6,35.0,30.37,SSE,161,0.0,1.0,53,0.00,CLR,,0.00,WeatherDisplay:10.37,2013-02-15 09:00:00,
2013-02-15 10:05:00,52.0,35.4,30.37,South,191,0.0,1.0,53,0.00,CLR,,0.00,WeatherDisplay:10.37,2013-02-15 09:05:00,
2013-02-15 10:10:00,52.3,35.2,30.38,SW,219,0.0,0.0,52,0.00,CLR,,0.00,WeatherDisplay:10.37,2013-02-15 09:10:00,
2013-02-15 10:15:00,52.5,35.4,30.38,South,175,0.0,0.0,52,0.00,CLR,,0.00,WeatherDisplay:10.37,2013-02-15 09:15:00,
2013-02-15 10:20:00,52.9,35.2,30.38,SSE,156,1.0,2.0,51,0.00,CLR,,0.00,WeatherDisplay:10.37,2013-02-15 09:20:00,
2013-02-15 10:25:00,53.4,35.2,30.38,SE,142,0.0,2.0,50,0.00,CLR,,0.00,WeatherDisplay:10.37,2013-02-15 09:25:00,
2013-02-15 13:25:00,49.5,41.9,30.07,WNW,292,0.0,0.0,75,0.00,CLR,,0.00,WeatherDisplay:10.37,2013-02-15 12:25:00,
2013-02-15 13:30:00,49.5,41.9,30.07,North,0,0.0,0.0,75,0.00,CLR,,0.00,WeatherDisplay:10.37,2013-02-15 12:30:00,
2013-02-15 13:35:00,49.5,41.9,30.07,North,0,0.0,0.0,75,0.00,CLR,,0.00,WeatherDisplay:10.37,2013-02-15 12:35:00,
2013-02-15 13:40:00,49.5,41.9,30.07,North,0,0.0,0.0,75,0.00,CLR,,0.00,WeatherDisplay:10.37,2013-02-15 12:40:00,
2013-02-15 13:45:00,49.5,41.9,30.07,North,0,0.0,0.0,75,0.00,CLR,,0.00,WeatherDisplay:10.37,2013-02-15 12:45:00,
2013-02-15 13:50:00,49.5,41.9,30.07,North,0,0.0,0.0,75,0.00,CLR,,0.00,WeatherDisplay:10.37,2013-02-15 12:50:00,
2013-02-15 13:55:00,49.5,41.9,30.07,North,0,0.0,0.0,75,0.00,CLR,,0.00,WeatherDisplay:10.37,2013-02-15 12:55:00,
2013-02-15 14:05:00,49.5,-23.2,28.73,North,0,5.0,0.0,4,0.00,CLR,,0.00,WeatherDisplay:10.37,2013-02-15 13:05:00,
2013-02-15 14:10:00,49.5,-23.2,28.73,North,0,5.0,0.0,4,0.00,CLR,,0.00,WeatherDisplay:10.37,2013-02-15 13:10:00,
2013-02-15 14:15:00,49.5,-23.2,28.73,North,0,5.0,0.0,4,0.00,CLR,,0.00,WeatherDisplay:10.37,2013-02-15 13:15:00,
2013-02-15 14:16:00,50.4,32.4,30.34,SSE,158,1.2,0.0,50,0.00,CLR,,0.00,WeatherDisplay:10.37,2013-02-15 13:16:00,
2013-02-15 14:20:00,49.5,-23.2,28.73,North,0,5.0,0.0,4,0.00,CLR,,0.00,WeatherDisplay:10.37,2013-02-15 13:20:00,
2013-02-15 14:21:00,61.0,41.1,30.06,SE,135,1.2,0.0,48,0.00,CLR,,0.00,WeatherDisplay:10.37,2013-02-15 13:21:00,
2013-02-15 14:25:00,49.5,-23.2,28.73,North,0,5.0,0.0,4,0.00,CLR,,0.00,WeatherDisplay:10.37,2013-02-15 13:25:00,
2013-02-15 14:26:00,60.3,39.9,30.06,NE,45,1.2,1.2,47,0.00,CLR,,0.00,WeatherDisplay:10.37,2013-02-15 13:26:00,
2013-02-15 14:30:00,49.5,-23.2,28.73,North,0,5.0,0.0,4,0.00,CLR,,0.00,WeatherDisplay:10.37,2013-02-15 13:30:00,
2013-02-15 14:31:00,59.2,39.5,30.06,NE,45,3.5,3.5,48,0.00,CLR,,0.00,WeatherDisplay:10.37,2013-02-15 13:31:00,
2013-02-15 14:35:00,49.5,-23.2,28.73,North,0,5.0,0.0,4,0.00,CLR,,0.00,WeatherDisplay:10.37,2013-02-15 13:35:00,
2013-02-15 14:36:00,59.0,39.9,30.06,SE,135,3.5,3.5,49,0.00,CLR,,0.00,WeatherDisplay:10.37,2013-02-15 13:36:00,
2013-02-15 14:40:00,49.5,-23.2,28.73,North,0,5.0,0.0,4,0.00,CLR,,0.00,WeatherDisplay:10.37,2013-02-15 13:40:00,
2013-02-15 14:41:00,59.7,41.0,30.06,North,0,1.6,0.0,50,0.00,CLR,,0.00,WeatherDisplay:10.37,2013-02-15 13:41:00,
2013-02-15 14:46:00,61.2,41.8,30.06,SSE,158,1.2,1.2,49,0.00,CLR,,0.00,WeatherDisplay:10.37,2013-02-15 13:46:00,
2013-02-15 15:25:00,50.9,42.2,30.06,NNW,333,0.0,0.0,72,0.00,CLR,,0.00,WeatherDisplay:10.37,2013-02-15 14:25:00,
2013-02-15 15:30:00,50.9,42.2,30.06,North,0,0.0,0.0,72,0.00,CLR,,0.00,WeatherDisplay:10.37,2013-02-15 14:30:00,
2013-02-15 15:35:00,50.9,42.2,30.06,North,0,0.0,0.0,72,0.00,CLR,,0.00,WeatherDisplay:10.37,2013-02-15 14:35:00,
2013-02-15 15:40:00,50.9,42.2,30.06,North,0,0.0,0.0,72,0.00,CLR,,0.00,WeatherDisplay:10.37,2013-02-15 14:40:00,
2013-02-15 15:45:00,50.9,42.2,30.06,North,0,0.0,0.0,72,0.00,CLR,,0.00,WeatherDisplay:10.37,2013-02-15 14:45:00,
2013-02-15 15:50:00,50.9,42.2,30.06,North,0,0.0,0.0,72,0.00,CLR,,0.00,WeatherDisplay:10.37,2013-02-15 14:50:00,
2013-02-15 16:00:00,50.9,-22.2,28.73,South,180,0.0,1.0,4,0.00,CLR,,0.00,WeatherDisplay:10.37,2013-02-15 15:00:00,
2013-02-15 16:05:00,50.9,-22.2,28.73,South,180,0.0,1.0,4,0.00,CLR,,0.00,WeatherDisplay:10.37,2013-02-15 15:05:00,
2013-02-15 16:30:00,61.7,43.4,30.19,West,262,0.0,1.0,51,0.00,RA,,0.01,WeatherDisplay:10.37,2013-02-15 15:30:00,
2013-02-15 16:35:00,61.7,43.4,30.19,NNE,25,0.0,2.0,51,0.01,RA,,0.01,WeatherDisplay:10.37,2013-02-15 15:35:00,
2013-02-15 16:40:00,61.9,43.0,30.19,ESE,122,1.0,2.0,50,0.00,CLR,,0.01,WeatherDisplay:10.37,2013-02-15 15:40:00,
2013-02-15 16:45:00,61.9,42.5,30.19,SE,138,1.0,3.0,49,0.00,CLR,,0.01,WeatherDisplay:10.37,2013-02-15 15:45:00,
2013-02-15 16:50:00,62.1,42.7,30.19,East,86,0.0,3.0,49,0.00,CLR,,0.01,WeatherDisplay:10.37,2013-02-15 15:50:00,
2013-02-15 16:55:00,62.2,42.8,30.19,ESE,107,1.0,2.0,49,0.00,CLR,,0.01,WeatherDisplay:10.37,2013-02-15 15:55:00,
2013-02-15 17:00:00,62.2,41.2,30.19,East,89,1.0,2.0,46,0.00,CLR,,0.01,WeatherDisplay:10.37,2013-02-15 16:00:00,
2013-02-15 17:05:00,60.8,41.0,30.21,West,270,0.0,2.0,48,0.00,CLR,,0.01,WeatherDisplay:10.37,2013-02-15 16:05:00,
2013-02-15 17:10:00,60.8,37.5,30.21,West,267,1.0,4.0,42,0.00,CLR,,0.01,WeatherDisplay:10.37,2013-02-15 16:10:00,
2013-02-15 17:15:00,61.2,35.3,30.20,WSW,258,3.0,7.0,38,0.00,CLR,,0.01,WeatherDisplay:10.37,2013-02-15 16:15:00,
2013-02-15 17:20:00,61.3,35.5,30.20,West,265,3.0,7.0,38,0.00,CLR,,0.01,WeatherDisplay:10.37,2013-02-15 16:20:00,
2013-02-15 17:25:00,61.5,37.0,30.20,West,269,0.0,5.0,40,0.00,CLR,,0.01,WeatherDisplay:10.37,2013-02-15 16:25:00,
2013-02-15 17:30:00,61.7,37.7,30.20,WSW,253,1.0,3.0,41,0.00,CLR,,0.01,WeatherDisplay:10.37,2013-02-15 16:30:00,
2013-02-15 17:35:00,61.9,40.9,30.20,SE,140,0.0,4.0,46,0.00,CLR,,0.01,WeatherDisplay:10.37,2013-02-15 16:35:00,
2013-02-15 17:40:00,61.7,41.8,30.20,East,100,1.0,4.0,48,0.00,CLR,,0.01,WeatherDisplay:10.37,2013-02-15 16:40:00,
2013-02-15 17:45:00,61.5,42.7,30.20,East,90,3.0,5.0,50,0.00,CLR,,0.01,WeatherDisplay:10.37,2013-02-15 16:45:00,
2013-02-15 17:50:00,61.3,42.5,30.20,East,90,0.0,5.0,50,0.00,CLR,,0.01,WeatherDisplay:10.37,2013-02-15 16:50:00,
2013-02-15 17:55:00,61.3,43.0,30.19,East,90,1.0,3.0,51,0.00,CLR,,0.01,WeatherDisplay:10.37,2013-02-15 16:55:00,
2013-02-15 18:00:00,61.5,43.2,30.19,East,90,1.0,3.0,51,0.00,CLR,,0.01,WeatherDisplay:10.37,2013-02-15 17:00:00,
2013-02-15 18:05:00,61.7,43.4,30.19,North,10,0.0,2.0,51,0.00,RA,,0.00,WeatherDisplay:10.37,2013-02-15 17:05:00,
2013-02-15 18:10:00,61.7,43.4,30.19,NNE,25,0.0,2.0,51,0.00,RA,,0.00,WeatherDisplay:10.37,2013-02-15 17:10:00,
2013-02-15 18:15:00,61.9,43.0,30.19,ESE,122,1.0,2.0,50,0.00,CLR,,0.00,WeatherDisplay:10.37,2013-02-15 17:15:00,
2013-02-15 18:20:00,61.9,42.5,30.19,SE,138,1.0,3.0,49,0.00,CLR,,0.00,WeatherDisplay:10.37,2013-02-15 17:20:00,
2013-02-15 18:25:00,62.1,42.7,30.19,East,86,0.0,3.0,49,0.00,CLR,,0.00,WeatherDisplay:10.37,2013-02-15 17:25:00,
2013-02-15 18:30:00,62.2,42.8,30.19,ESE,107,1.0,2.0,49,0.00,CLR,,0.00,WeatherDisplay:10.37,2013-02-15 17:30:00,
2013-02-15 18:35:00,62.2,41.2,30.19,East,89,1.0,2.0,46,0.00,CLR,,0.00,WeatherDisplay:10.37,2013-02-15 17:35:00,
2013-02-15 18:40:00,62.4,39.6,30.19,NE,54,0.0,2.0,43,0.00,CLR,,0.00,WeatherDisplay:10.37,2013-02-15 17:40:00,
2013-02-15 18:45:00,62.6,37.9,30.19,NW,319,1.0,2.0,40,0.00,CLR,,0.00,WeatherDisplay:10.37,2013-02-15 17:45:00,
2013-02-15 18:50:00,62.8,37.4,30.19,WNW,303,0.0,2.0,39,0.00,CLR,,0.00,WeatherDisplay:10.37,2013-02-15 17:50:00,
2013-02-15 18:55:00,63.0,36.9,30.19,NW,321,0.0,2.0,38,0.00,CLR,,0.00,WeatherDisplay:10.37,2013-02-15 17:55:00,
2013-02-15 18:56:00,53.4,35.2,30.38,SE,135,1.2,0.0,50,0.00,CLR,,0.00,WeatherDisplay:10.37,2013-02-15 17:56:00,
2013-02-15 19:00:00,63.0,37.6,30.19,NE,54,0.0,2.0,39,0.00,CLR,,0.00,WeatherDisplay:10.37,2013-02-15 18:00:00,
2013-02-15 19:01:00,49.1,41.5,30.06,SW,225,0.0,0.0,75,0.00,CLR,,0.00,WeatherDisplay:10.37,2013-02-15 18:01:00,
2013-02-15 19:05:00,63.1,35.0,30.19,ESE,119,1.0,3.0,35,0.00,CLR,,0.00,WeatherDisplay:10.37,2013-02-15 18:05:00,
2013-02-15 19:06:00,49.1,41.5,30.06,SW,225,0.0,0.0,75,0.00,CLR,,0.00,WeatherDisplay:10.37,2013-02-15 18:06:00,
2013-02-15 19:10:00,64.9,37.3,30.19,SSE,163,0.0,3.0,36,0.00,CLR,,0.00,WeatherDisplay:10.37,2013-02-15 18:10:00,
2013-02-15 19:11:00,49.1,41.5,30.07,SW,225,0.0,0.0,75,0.00,CLR,,0.00,WeatherDisplay:10.37,2013-02-15 18:11:00,
2013-02-15 19:15:00,67.8,37.6,30.20,SW,231,1.0,3.0,33,0.00,CLR,,0.00,WeatherDisplay:10.37,2013-02-15 18:15:00,
2013-02-15 19:16:00,49.3,41.7,30.07,SW,225,0.0,0.0,75,0.00,CLR,,0.00,WeatherDisplay:10.37,2013-02-15 18:16:00,
2013-02-15 19:20:00,68.5,35.9,30.20,WSW,251,2.0,5.0,30,0.00,CLR,,0.00,WeatherDisplay:10.37,2013-02-15 18:20:00,
2013-02-15 19:25:00,68.0,34.5,30.20,West,261,1.0,5.0,29,0.00,CLR,,0.00,WeatherDisplay:10.37,2013-02-15 18:25:00,
2013-02-15 19:30:00,68.0,34.5,30.20,WSW,258,2.0,4.0,29,0.00,CLR,,0.00,WeatherDisplay:10.37,2013-02-15 18:30:00,
2013-02-15 19:35:00,68.0,36.2,30.20,WSW,246,1.0,3.0,31,0.00,CLR,,0.00,WeatherDisplay:10.37,2013-02-15 18:35:00,
2013-02-15 19:40:00,55.9,50.9,30.32,SW,230,0.0,2.0,83,0.00,CLR,,0.00,WeatherDisplay:10.37,2013-02-15 18:40:00,
2013-02-15 19:45:00,55.9,50.9,30.32,SW,218,0.0,1.0,83,0.00,CLR,,0.00,WeatherDisplay:10.37,2013-02-15 18:45:00,
2013-02-15 19:50:00,56.1,51.0,30.33,WSW,252,0.0,1.0,83,0.00,CLR,,0.00,WeatherDisplay:10.37,2013-02-15 18:50:00,
2013-02-15 19:55:00,56.1,51.0,30.33,West,270,0.0,0.0,83,0.00,CLR,,0.00,WeatherDisplay:10.37,2013-02-15 18:55:00,
2013-02-15 20:00:00,56.3,51.2,30.32,West,270,1.0,2.0,83,0.00,CLR,,0.00,WeatherDisplay:10.37,2013-02-15 19:00:00,
2013-02-15 20:05:00,56.5,51.4,30.33,West,270,0.0,2.0,83,0.00,CLR,,0.00,WeatherDisplay:10.37,2013-02-15 19:05:00,
2013-02-15 20:10:00,56.5,51.4,30.33,West,270,1.0,2.0,83,0.00,CLR,,0.00,WeatherDisplay:10.37,2013-02-15 19:10:00,
2013-02-15 20:15:00,56.7,51.6,30.33,West,270,1.0,2.0,83,0.00,CLR,,0.00,WeatherDisplay:10.37,2013-02-15 19:15:00,
2013-02-15 20:20:00,56.8,51.4,30.34,West,277,0.0,2.0,82,0.00,CLR,,0.00,WeatherDisplay:10.37,2013-02-15 19:20:00,
2013-02-15 20:25:00,56.8,51.4,30.34,WNW,303,0.0,2.0,82,0.00,CLR,,0.00,WeatherDisplay:10.37,2013-02-15 19:25:00,
2013-02-15 20:30:00,57.0,51.6,30.34,NW,309,0.0,0.0,82,0.00,CLR,,0.00,WeatherDisplay:10.37,2013-02-15 19:30:00,
2013-02-15 20:35:00,49.5,-23.2,28.73,North,0,0.0,4.7,4,0.00,CLR,,0.00,WeatherDisplay:10.37,2013-02-15 19:35:00,
2013-02-15 20:40:00,50.7,42.4,30.06,West,270,1.2,1.2,73,0.00,CLR,,0.00,WeatherDisplay:10.37,2013-02-15 19:40:00,
2013-02-15 20:45:00,50.7,42.4,30.07,WSW,248,2.3,0.0,73,0.00,CLR,,0.00,WeatherDisplay:10.37,2013-02-15 19:45:00,
2013-02-15 20:50:00,50.7,42.4,30.06,West,270,2.3,2.3,73,0.00,CLR,,0.00,WeatherDisplay:10.37,2013-02-15 19:50:00,
2013-02-15 20:55:00,50.9,42.6,30.07,South,180,3.5,3.5,73,0.00,CLR,,0.00,WeatherDisplay:10.37,2013-02-15 19:55:00,
2013-02-15 21:00:00,50.9,42.2,30.06,West,270,2.3,2.3,72,0.00,CLR,,0.00,WeatherDisplay:10.37,2013-02-15 20:00:00,
2013-02-15 21:05:00,50.9,42.2,30.06,West,270,2.3,2.3,72,0.00,CLR,,0.00,WeatherDisplay:10.37,2013-02-15 20:05:00,
2013-02-15 21:10:00,57.9,52.1,30.35,West,270,0.0,0.0,81,0.00,CLR,,0.00,WeatherDisplay:10.37,2013-02-15 20:10:00,
2013-02-15 21:11:00,50.9,42.2,30.06,SW,225,3.5,3.5,72,0.00,CLR,,0.00,WeatherDisplay:10.37,2013-02-15 20:11:00,
2013-02-15 21:15:00,58.1,52.3,30.35,West,270,0.0,0.0,81,0.00,CLR,,0.00,WeatherDisplay:10.37,2013-02-15 20:15:00,
2013-02-15 21:16:00,50.7,42.0,30.06,SW,225,1.2,0.0,72,0.00,CLR,,0.00,WeatherDisplay:10.37,2013-02-15 20:16:00,
2013-02-15 21:20:00,58.1,52.3,30.35,West,270,0.0,0.0,81,0.00,CLR,,0.00,WeatherDisplay:10.37,2013-02-15 20:20:00,
2013-02-15 21:21:00,50.9,42.2,30.06,NW,315,1.2,0.0,72,0.00,CLR,,0.00,WeatherDisplay:10.37,2013-02-15 20:21:00,
2013-02-15 21:25:00,58.3,52.5,30.36,West,270,0.0,0.0,81,0.00,CLR,,0.00,WeatherDisplay:10.37,2013-02-15 20:25:00,
2013-02-15 21:26:00,50.9,42.2,30.06,West,270,3.5,3.5,72,0.00,CLR,,0.00,WeatherDisplay:10.37,2013-02-15 20:26:00,
2013-02-15 21:30:00,58.3,52.5,30.36,West,264,0.0,1.0,81,0.00,CLR,,0.00,WeatherDisplay:10.37,2013-02-15 20:30:00,
2013-02-15 21:35:00,58.3,52.5,30.36,SW,214,0.0,1.0,81,0.00,CLR,,0.00,WeatherDisplay:10.37,2013-02-15 20:35:00,
2013-02-15 21:40:00,58.6,52.5,30.36,South,186,0.0,1.0,80,0.00,CLR,,0.00,WeatherDisplay:10.37,2013-02-15 20:40:00,
2013-02-15 21:45:00,58.6,52.5,30.37,SW,234,0.0,1.0,80,0.00,CLR,,0.00,WeatherDisplay:10.37,2013-02-15 20:45:00,
2013-02-15 21:50:00,61.3,33.4,30.22,WSW,255,0.0,1.0,35,0.39,RA,,0.39,WeatherDisplay:10.37,2013-02-15 20:50:00,
2013-02-15 21:55:00,61.2,33.3,30.22,SW,231,0.0,1.0,35,0.39,RA,,0.39,WeatherDisplay:10.37,2013-02-15 20:55:00,
2013-02-15 22:00:00,60.8,33.7,30.22,SE,130,0.0,1.0,36,0.00,CLR,,0.39,WeatherDisplay:10.37,2013-02-15 21:00:00,
2013-02-15 22:05:00,60.6,34.2,30.22,NE,45,0.0,1.0,37,0.00,CLR,,0.39,WeatherDisplay:10.37,2013-02-15 21:05:00,
2013-02-15 22:10:00,60.4,34.0,30.22,SSW,202,0.0,1.0,37,0.00,CLR,,0.39,WeatherDisplay:10.37,2013-02-15 21:10:00,
2013-02-15 22:15:00,60.4,34.0,30.22,SSW,207,0.0,1.0,37,0.00,CLR,,0.39,WeatherDisplay:10.37,2013-02-15 21:15:00,
2013-02-15 22:20:00,59.7,34.7,30.22,SW,228,1.0,2.0,39,0.00,CLR,,0.39,WeatherDisplay:10.37,2013-02-15 21:20:00,
2013-02-15 22:25:00,59.7,34.0,30.23,WSW,247,0.0,2.0,38,0.00,CLR,,0.39,WeatherDisplay:10.37,2013-02-15 21:25:00,
2013-02-15 22:28:00,50.9,-22.2,28.73,South,180,1.2,0.0,4,0.00,CLR,,0.00,WeatherDisplay:10.37,2013-02-15 21:28:00,
2013-02-15 22:30:00,59.5,33.9,30.23,West,270,0.0,2.0,38,0.00,CLR,,0.39,WeatherDisplay:10.37,2013-02-15 21:30:00,
2013-02-15 22:33:00,50.5,41.1,30.06,West,270,2.3,2.3,70,0.00,CLR,,0.00,WeatherDisplay:10.37,2013-02-15 21:33:00,
2013-02-15 22:35:00,59.5,33.9,30.23,West,270,0.0,2.0,38,0.00,CLR,,0.39,WeatherDisplay:10.37,2013-02-15 21:35:00,
2013-02-15 22:38:00,50.4,41.3,30.06,West,270,2.3,2.3,71,0.01,RA,,0.01,WeatherDisplay:10.37,2013-02-15 21:38:00,
2013-02-15 22:40:00,59.5,34.5,30.24,West,270,1.0,2.0,39,0.00,CLR,,0.39,WeatherDisplay:10.37,2013-02-15 21:40:00,
2013-02-15 22:45:00,59.2,34.9,30.24,West,270,0.0,2.0,40,0.00,CLR,,0.39,WeatherDisplay:10.37,2013-02-15 21:45:00,
2013-02-15 22:50:00,59.0,35.3,30.24,East,90,0.0,0.0,41,0.00,CLR,,0.39,WeatherDisplay:10.37,2013-02-15 21:50:00,
2013-02-15 22:55:00,58.6,35.0,30.25,West,270,0.0,1.0,41,0.00,CLR,,0.39,WeatherDisplay:10.37,2013-02-15 21:55:00,
2013-02-15 23:00:00,58.3,35.3,30.25,West,270,0.0,2.0,42,0.00,CLR,,0.39,WeatherDisplay:10.37,2013-02-15 22:00:00,
2013-02-15 23:05:00,58.1,35.1,30.25,West,273,1.0,2.0,42,0.00,CLR,,0.39,WeatherDisplay:10.37,2013-02-15 22:05:00,
2013-02-15 23:10:00,57.9,35.5,30.25,WNW,293,1.0,2.0,43,0.00,CLR,,0.39,WeatherDisplay:10.37,2013-02-15 22:10:00,
2013-02-15 23:15:00,57.7,35.4,30.25,NW,310,1.0,3.0,43,0.00,CLR,,0.39,WeatherDisplay:10.37,2013-02-15 22:15:00,